createdAt,value
2023-03-05T00:01:57.367Z,4.25
2023-03-05T00:04:02.602Z,9.30
2023-03-05T00:06:08.369Z,5.22
2023-03-05T00:08:15.932Z,11.15
2023-03-05T00:10:20.670Z,6.30
2023-03-05T00:12:25.299Z,7.05
2023-03-05T00:14:30.017Z,8.35
2023-03-05T00:16:35.484Z,4.53
2023-03-05T00:18:40.189Z,8.10
2023-03-05T00:20:45.073Z,6.28
2023-03-05T00:22:49.781Z,7.22
2023-03-05T00:24:57.177Z,6.40
2023-03-05T00:27:01.858Z,4.38
2023-03-05T00:29:07.642Z,6.00
2023-03-05T00:31:12.620Z,8.90
2023-03-05T00:33:17.505Z,7.30
2023-03-05T00:35:22.416Z,7.50
2023-03-05T00:37:27.246Z,6.93
2023-03-05T00:39:31.908Z,2.92
2023-03-05T00:41:39.817Z,5.93
2023-03-05T00:43:44.808Z,9.85
2023-03-05T00:45:49.465Z,9.10
2023-03-05T00:47:54.138Z,6.88
2023-03-05T00:49:58.823Z,5.47
2023-03-05T00:52:03.544Z,7.05
2023-03-05T00:54:08.678Z,6.88
2023-03-05T00:56:13.340Z,5.20
2023-03-05T00:58:20.838Z,5.28
2023-03-05T01:00:25.827Z,7.05
2023-03-05T01:02:31.108Z,5.47
2023-03-05T01:04:36.996Z,3.85
2023-03-05T01:06:44.957Z,3.67
2023-03-05T01:08:49.676Z,5.10
2023-03-05T01:10:54.753Z,8.73
2023-03-05T01:13:00.031Z,7.03
2023-03-05T01:15:08.683Z,5.28
2023-03-05T01:17:13.578Z,4.15
2023-03-05T01:19:19.332Z,7.18
2023-03-05T01:21:24.360Z,10.55
2023-03-05T01:23:29.414Z,10.18
2023-03-05T01:25:34.063Z,9.40
2023-03-05T01:27:38.708Z,13.93
2023-03-05T01:29:43.487Z,11.63
2023-03-05T01:31:50.896Z,9.93
2023-03-05T01:33:56.624Z,8.27
2023-03-05T01:36:01.298Z,7.68
2023-03-05T01:38:05.963Z,12.52
2023-03-05T01:40:12.544Z,9.43
2023-03-05T01:42:19.478Z,6.80
2023-03-05T01:44:26.710Z,7.15
2023-03-05T01:46:34.941Z,4.95
2023-03-05T01:48:47.383Z,6.78
2023-03-05T01:50:52.453Z,5.65
2023-03-05T01:53:01.429Z,10.30
2023-03-05T01:55:08.800Z,5.65
2023-03-05T01:57:17.843Z,18.38
2023-03-05T01:59:24.973Z,18.25
2023-03-05T02:01:29.938Z,14.75
2023-03-05T02:03:36.503Z,15.63
2023-03-05T02:05:46.008Z,10.25
2023-03-05T02:07:50.768Z,11.15
2023-03-05T02:09:55.549Z,10.82
2023-03-05T02:12:00.802Z,10.10
2023-03-05T02:14:09.028Z,5.70
2023-03-05T02:16:14.849Z,7.43
2023-03-05T02:18:21.519Z,7.85
2023-03-05T02:20:28.991Z,6.80
2023-03-05T02:22:38.232Z,5.65
2023-03-05T02:24:42.983Z,6.97
2023-03-05T02:26:49.692Z,4.63
2023-03-05T02:29:00.043Z,8.73
2023-03-05T02:31:04.824Z,4.32
2023-03-05T02:33:09.782Z,7.25
2023-03-05T02:35:14.585Z,4.90
2023-03-05T02:37:19.249Z,5.13
2023-03-05T02:39:26.633Z,5.50
2023-03-05T02:41:31.346Z,7.90
2023-03-05T02:43:36.096Z,9.45
2023-03-05T02:45:41.974Z,9.48
2023-03-05T02:47:46.963Z,5.25
2023-03-05T02:49:51.676Z,6.20
2023-03-05T02:51:56.472Z,5.20
2023-03-05T02:54:01.209Z,3.53
2023-03-05T02:56:10.564Z,5.70
2023-03-05T02:58:15.166Z,8.32
2023-03-05T03:00:20.700Z,5.05
2023-03-05T03:02:25.879Z,5.57
2023-03-05T03:04:30.618Z,4.75
2023-03-05T03:06:35.290Z,5.50
2023-03-05T03:08:40.116Z,2.70
2023-03-05T03:10:44.904Z,4.80
2023-03-05T03:12:52.164Z,6.03
2023-03-05T03:14:56.860Z,4.35
2023-03-05T03:17:02.001Z,3.55
2023-03-05T03:19:06.710Z,4.50
2023-03-05T03:21:11.500Z,7.60
2023-03-05T03:23:16.132Z,6.25
2023-03-05T03:25:23.609Z,6.70
2023-03-05T03:27:28.336Z,4.72
2023-03-05T03:29:35.860Z,3.20
2023-03-05T03:31:41.851Z,8.30
2023-03-05T03:33:47.066Z,3.20
2023-03-05T03:35:51.858Z,11.23
2023-03-05T03:37:56.572Z,6.80
2023-03-05T03:40:01.434Z,7.68
2023-03-05T03:42:06.328Z,4.05
2023-03-05T03:44:11.336Z,5.93
2023-03-05T03:46:21.101Z,7.78
2023-03-05T03:48:26.003Z,3.22
2023-03-05T03:50:30.742Z,7.93
2023-03-05T03:52:35.424Z,6.07
2023-03-05T03:54:40.096Z,8.50
2023-03-05T03:56:45.239Z,4.13
2023-03-05T03:58:52.373Z,7.10
2023-03-05T04:00:57.613Z,3.78
2023-03-05T04:03:04.994Z,4.00
2023-03-05T04:05:11.739Z,6.43
2023-03-05T04:07:16.693Z,4.85
2023-03-05T04:09:21.417Z,2.90
2023-03-05T04:11:26.246Z,3.13
2023-03-05T04:13:31.212Z,3.20
2023-03-05T04:15:36.604Z,2.53
2023-03-05T04:17:41.367Z,2.92
2023-03-05T04:19:48.955Z,2.70
2023-03-05T04:21:53.712Z,3.30
2023-03-05T04:23:58.397Z,2.22
2023-03-05T04:26:11.435Z,2.20
2023-03-05T04:28:17.820Z,4.88
2023-03-05T04:30:22.786Z,2.45
2023-03-05T04:32:30.000Z,1.33
2023-03-05T04:34:35.547Z,1.50
2023-03-05T04:36:42.871Z,1.40
2023-03-05T04:38:48.012Z,4.70
2023-03-05T04:40:52.912Z,2.20
2023-03-05T04:42:57.690Z,2.05
2023-03-05T04:45:02.437Z,2.28
2023-03-05T04:47:08.418Z,1.10
2023-03-05T04:49:13.445Z,1.25
2023-03-05T04:51:18.380Z,3.38
2023-03-05T04:53:25.630Z,1.65
2023-03-05T04:55:30.754Z,2.80
2023-03-05T04:57:35.594Z,1.60
2023-03-05T04:59:40.909Z,3.35
2023-03-05T05:01:45.910Z,3.22
2023-03-05T05:03:50.643Z,5.13
2023-03-05T05:06:01.604Z,2.35
2023-03-05T05:08:06.621Z,1.23
2023-03-05T05:10:18.294Z,2.90
2023-03-05T05:12:23.106Z,2.28
2023-03-05T05:14:28.054Z,1.27
2023-03-05T05:16:33.024Z,1.98
2023-03-05T05:18:38.324Z,1.20
2023-03-05T05:20:44.261Z,1.50
2023-03-05T05:22:49.223Z,3.10
2023-03-05T05:24:54.020Z,2.13
2023-03-05T05:27:01.332Z,2.92
2023-03-05T05:29:06.152Z,1.90
2023-03-05T05:31:11.485Z,1.30
2023-03-05T05:33:16.298Z,1.90
2023-03-05T05:35:21.302Z,4.22
2023-03-05T05:37:27.122Z,2.20
2023-03-05T05:39:31.870Z,1.48
2023-03-05T05:41:36.643Z,1.40
2023-03-05T05:43:47.513Z,3.15
2023-03-05T05:45:52.354Z,2.10
2023-03-05T05:47:59.683Z,5.15
2023-03-05T05:50:07.970Z,4.20
2023-03-05T05:52:13.396Z,4.35
2023-03-05T05:54:18.726Z,4.40
2023-03-05T05:56:23.518Z,5.40
2023-03-05T05:58:30.370Z,4.25
2023-03-05T06:00:37.737Z,5.10
2023-03-05T06:02:43.011Z,3.30
2023-03-05T06:04:47.959Z,4.32
2023-03-05T06:06:53.047Z,4.22
2023-03-05T06:08:58.255Z,5.43
2023-03-05T06:11:02.997Z,4.35
2023-03-05T06:13:07.845Z,8.25
2023-03-05T06:15:13.137Z,4.82
2023-03-05T06:17:29.949Z,4.22
2023-03-05T06:19:35.584Z,4.20
2023-03-05T06:21:41.642Z,3.20
2023-03-05T06:23:47.014Z,4.47
2023-03-05T06:25:51.774Z,7.03
2023-03-05T06:27:56.462Z,2.70
2023-03-05T06:30:01.246Z,6.63
2023-03-05T06:32:09.400Z,3.65
2023-03-05T06:34:16.806Z,3.42
2023-03-05T06:36:24.327Z,2.22
2023-03-05T06:38:29.233Z,4.43
2023-03-05T06:40:33.924Z,3.22
2023-03-05T06:42:39.232Z,5.95
2023-03-05T06:44:46.551Z,3.08
2023-03-05T06:46:51.983Z,3.90
2023-03-05T06:48:59.284Z,5.10
2023-03-05T06:51:06.969Z,1.35
2023-03-05T06:53:11.657Z,4.22
2023-03-05T06:55:16.392Z,2.45
2023-03-05T06:57:21.149Z,4.95
2023-03-05T06:59:26.057Z,2.42
2023-03-05T07:01:30.739Z,4.07
2023-03-05T07:03:35.632Z,3.58
2023-03-05T07:05:41.821Z,5.20
2023-03-05T07:07:49.147Z,1.90
2023-03-05T07:09:55.338Z,4.75
2023-03-05T07:12:00.125Z,2.97
2023-03-05T07:14:05.881Z,5.43
2023-03-05T07:16:11.977Z,3.92
2023-03-05T07:18:16.727Z,4.55
2023-03-05T07:20:21.582Z,5.85
2023-03-05T07:22:26.413Z,2.85
2023-03-05T07:24:33.706Z,4.40
2023-03-05T07:26:38.412Z,4.82
2023-03-05T07:28:43.137Z,1.60
2023-03-05T07:30:47.889Z,2.08
2023-03-05T07:32:52.548Z,2.20
2023-03-05T07:34:57.698Z,4.82
2023-03-05T07:37:02.458Z,2.47
2023-03-05T07:39:08.471Z,5.45
2023-03-05T07:41:19.907Z,4.53
2023-03-05T07:43:24.920Z,2.88
2023-03-05T07:45:29.732Z,3.70
2023-03-05T07:47:34.391Z,1.60
2023-03-05T07:49:42.071Z,4.80
2023-03-05T07:51:47.105Z,1.38
2023-03-05T07:53:53.802Z,2.67
2023-03-05T07:55:58.644Z,2.72
2023-03-05T07:58:06.221Z,3.65
2023-03-05T08:00:12.359Z,8.35
2023-03-05T08:02:19.678Z,3.35
2023-03-05T08:04:24.597Z,3.53
2023-03-05T08:06:29.413Z,3.90
2023-03-05T08:08:34.124Z,2.50
2023-03-05T08:10:40.195Z,1.40
2023-03-05T08:12:44.858Z,4.70
2023-03-05T08:14:52.291Z,4.25
2023-03-05T08:16:57.055Z,5.13
2023-03-05T08:19:02.261Z,3.83
2023-03-05T08:21:07.956Z,3.47
2023-03-05T08:23:14.569Z,2.40
2023-03-05T08:25:19.490Z,6.15
2023-03-05T08:27:24.258Z,3.95
2023-03-05T08:29:30.787Z,2.95
2023-03-05T08:31:38.929Z,5.10
2023-03-05T08:33:44.058Z,4.75
2023-03-05T08:35:48.940Z,2.08
2023-03-05T08:37:53.748Z,4.80
2023-03-05T08:39:59.069Z,2.97
2023-03-05T08:42:03.756Z,2.25
2023-03-05T08:44:08.717Z,2.75
2023-03-05T08:46:14.446Z,3.90
2023-03-05T08:48:21.947Z,4.07
2023-03-05T08:50:27.267Z,9.13
2023-03-05T08:52:31.974Z,5.88
2023-03-05T08:54:36.977Z,7.40
2023-03-05T08:56:41.824Z,2.30
2023-03-05T08:58:48.185Z,2.85
2023-03-05T09:00:53.382Z,3.97
2023-03-05T09:02:58.431Z,3.47
2023-03-05T09:05:05.950Z,4.53
2023-03-05T09:07:13.058Z,5.63
2023-03-05T09:09:20.741Z,6.43
2023-03-05T09:11:25.966Z,1.90
2023-03-05T09:13:30.662Z,2.92
2023-03-05T09:15:36.956Z,6.93
2023-03-05T09:17:44.152Z,3.63
2023-03-05T09:19:48.934Z,1.65
2023-03-05T09:21:57.165Z,3.00
2023-03-05T09:24:02.286Z,4.53
2023-03-05T09:26:09.048Z,2.67
2023-03-05T09:28:16.194Z,2.63
2023-03-05T09:30:21.386Z,2.13
2023-03-05T09:32:26.484Z,5.13
2023-03-05T09:34:32.857Z,4.03
2023-03-05T09:36:38.765Z,1.48
2023-03-05T09:38:46.070Z,2.47
2023-03-05T09:40:58.613Z,2.45
2023-03-05T09:43:08.635Z,1.23
2023-03-05T09:45:24.327Z,2.03
2023-03-05T09:47:45.486Z,6.20
2023-03-05T09:49:59.393Z,5.18
2023-03-05T09:52:12.186Z,4.35
2023-03-05T09:54:23.414Z,3.03
2023-03-05T09:56:32.636Z,2.50
2023-03-05T09:58:41.069Z,3.70
2023-03-05T10:00:47.962Z,4.63
2023-03-05T10:02:58.504Z,1.50
2023-03-05T10:05:07.223Z,5.40
2023-03-05T10:07:18.615Z,5.28
2023-03-05T10:09:41.697Z,6.00
2023-03-05T10:11:52.331Z,2.35
2023-03-05T10:13:57.588Z,3.72
2023-03-05T10:16:13.909Z,6.40
2023-03-05T10:18:29.444Z,2.35
2023-03-05T10:20:49.016Z,2.03
2023-03-05T10:23:07.732Z,4.47
2023-03-05T10:25:27.772Z,4.15
2023-03-05T10:27:46.072Z,7.97
2023-03-05T10:30:09.180Z,4.05
2023-03-05T10:32:26.678Z,4.53
2023-03-05T10:35:04.641Z,5.95
2023-03-05T10:37:27.229Z,3.08
2023-03-05T10:39:50.013Z,2.75
2023-03-05T10:42:07.103Z,5.20
2023-03-05T10:44:19.421Z,3.80
2023-03-05T10:46:28.877Z,3.92
2023-03-05T10:48:39.588Z,3.20
2023-03-05T10:50:49.214Z,1.95
2023-03-05T10:52:59.510Z,3.72
2023-03-05T10:55:04.380Z,2.53
2023-03-05T10:57:19.787Z,2.35
2023-03-05T10:59:24.819Z,6.55
2023-03-05T11:01:31.913Z,2.95
2023-03-05T11:03:56.614Z,4.57
2023-03-05T11:06:04.502Z,2.65
2023-03-05T11:08:27.406Z,7.78
2023-03-05T11:10:32.080Z,1.75
2023-03-05T11:12:41.754Z,2.72
2023-03-05T11:15:06.473Z,2.92
2023-03-05T11:17:30.639Z,2.83
2023-03-05T11:19:37.806Z,2.63
2023-03-05T11:21:44.147Z,2.35
2023-03-05T11:24:09.749Z,1.40
2023-03-05T11:26:25.219Z,2.80
2023-03-05T11:28:35.688Z,1.92
2023-03-05T11:30:43.425Z,2.65
2023-03-05T11:32:48.222Z,3.13
2023-03-05T11:34:53.162Z,3.80
2023-03-05T11:37:07.479Z,4.07
2023-03-05T11:39:19.524Z,3.00
2023-03-05T11:41:30.527Z,5.13
2023-03-05T11:43:38.887Z,3.70
2023-03-05T11:45:43.927Z,2.40
2023-03-05T11:47:53.058Z,4.63
2023-03-05T11:50:17.914Z,4.40
2023-03-05T11:52:27.765Z,4.82
2023-03-05T11:54:41.411Z,2.17
2023-03-05T11:56:47.392Z,1.13
2023-03-05T11:59:02.858Z,2.30
2023-03-05T12:01:15.792Z,1.25
2023-03-05T12:03:24.907Z,1.67
2023-03-05T12:05:31.558Z,1.65
2023-03-05T12:07:43.300Z,4.78
2023-03-05T12:09:50.890Z,2.28
2023-03-05T12:12:05.228Z,4.13
2023-03-05T12:14:19.470Z,3.95
2023-03-05T12:16:36.273Z,5.47
2023-03-05T12:18:50.926Z,3.95
2023-03-05T12:21:10.283Z,3.45
2023-03-05T12:23:17.358Z,3.33
2023-03-05T12:25:37.154Z,4.88
2023-03-05T12:27:42.498Z,1.38
2023-03-05T12:29:53.345Z,3.63
2023-03-05T12:31:58.522Z,2.92
2023-03-05T12:34:03.709Z,1.63
2023-03-05T12:36:36.680Z,2.20
2023-03-05T12:38:41.699Z,2.05
2023-03-05T12:40:47.305Z,1.25
2023-03-05T12:42:58.043Z,1.10
2023-03-05T12:45:33.395Z,1.85
2023-03-05T12:47:40.384Z,0.90
2023-03-05T12:49:48.709Z,5.25
2023-03-05T12:51:55.026Z,4.03
2023-03-05T12:54:20.356Z,2.78
2023-03-05T12:56:29.482Z,2.85
2023-03-05T12:58:45.539Z,1.38
2023-03-05T13:00:56.913Z,3.35
2023-03-05T13:03:03.791Z,2.17
2023-03-05T13:05:24.522Z,4.30
2023-03-05T13:07:29.385Z,4.65
2023-03-05T13:09:37.761Z,1.88
2023-03-05T13:11:43.154Z,2.30
2023-03-05T13:13:50.498Z,6.57
2023-03-05T13:15:59.175Z,2.58
2023-03-05T13:18:08.643Z,1.70
2023-03-05T13:20:34.060Z,3.33
2023-03-05T13:22:41.867Z,3.17
2023-03-05T13:24:47.079Z,1.45
2023-03-05T13:26:51.850Z,5.47
2023-03-05T13:29:10.371Z,3.63
2023-03-05T13:31:23.166Z,4.65
2023-03-05T13:33:32.876Z,3.35
2023-03-05T13:35:38.109Z,3.80
2023-03-05T13:37:42.916Z,3.33
2023-03-05T13:39:52.192Z,3.50
2023-03-05T13:42:06.627Z,2.47
2023-03-05T13:44:23.701Z,2.83
2023-03-05T13:46:34.479Z,1.65
2023-03-05T13:48:41.263Z,4.60
2023-03-05T13:50:46.261Z,4.80
2023-03-05T13:52:51.038Z,2.80
2023-03-05T13:54:55.888Z,2.35
2023-03-05T13:57:05.540Z,2.20
2023-03-05T13:59:20.646Z,3.80
2023-03-05T14:01:33.412Z,1.83
2023-03-05T14:03:38.165Z,2.42
2023-03-05T14:05:47.172Z,5.93
2023-03-05T14:07:54.892Z,3.22
2023-03-05T14:10:00.000Z,4.40
2023-03-05T14:12:06.777Z,1.17
2023-03-05T14:14:20.575Z,2.10
2023-03-05T14:16:32.844Z,1.73
2023-03-05T14:18:41.267Z,1.73
2023-03-05T14:21:03.099Z,1.92
2023-03-05T14:23:29.326Z,2.03
2023-03-05T14:25:37.725Z,5.85
2023-03-05T14:27:47.992Z,2.38
2023-03-05T14:29:52.869Z,4.25
2023-03-05T14:32:00.631Z,3.67
2023-03-05T14:34:10.105Z,3.33
2023-03-05T14:36:15.554Z,2.90
2023-03-05T14:38:26.580Z,4.18
2023-03-05T14:40:34.313Z,2.92
2023-03-05T14:42:39.803Z,1.30
2023-03-05T14:44:45.016Z,1.75
2023-03-05T14:46:52.584Z,4.63
2023-03-05T14:48:57.570Z,1.60
2023-03-05T14:51:06.044Z,1.45
2023-03-05T14:53:13.546Z,3.67
2023-03-05T14:55:19.475Z,2.33
2023-03-05T14:57:25.963Z,1.80
2023-03-05T14:59:30.718Z,2.00
2023-03-05T15:01:35.554Z,2.40
2023-03-05T15:03:41.156Z,0.95
2023-03-05T15:05:47.336Z,2.00
2023-03-05T15:07:55.158Z,1.42
2023-03-05T15:10:00.467Z,3.97
2023-03-05T15:12:05.552Z,6.35
2023-03-05T15:14:10.313Z,4.88
2023-03-05T15:16:20.073Z,2.78
2023-03-05T15:18:25.106Z,2.33
2023-03-05T15:20:32.931Z,3.03
2023-03-05T15:22:37.963Z,1.70
2023-03-05T15:24:48.563Z,2.85
2023-03-05T15:26:53.361Z,1.30
2023-03-05T15:31:22.633Z,1.65
2023-03-05T15:33:27.706Z,2.90
2023-03-05T15:35:32.587Z,2.10
2023-03-05T15:37:37.244Z,2.35
2023-03-05T15:39:42.566Z,1.58
2023-03-05T15:41:50.238Z,4.72
2023-03-05T15:43:55.090Z,4.00
2023-03-05T15:46:00.195Z,3.88
2023-03-05T15:48:04.956Z,2.70
2023-03-05T15:50:12.093Z,2.25
2023-03-05T15:52:17.140Z,2.00
2023-03-05T15:54:21.958Z,3.03
2023-03-05T15:56:26.690Z,1.60
2023-03-05T15:58:34.019Z,4.15
2023-03-05T16:00:40.946Z,5.28
2023-03-05T16:02:45.564Z,1.88
2023-03-05T16:04:50.338Z,2.10
2023-03-05T16:06:55.380Z,1.25
2023-03-05T16:09:03.670Z,1.80
2023-03-05T16:11:11.051Z,4.63
2023-03-05T16:13:21.576Z,2.88
2023-03-05T16:15:30.422Z,1.60
2023-03-05T16:17:36.540Z,4.93
2023-03-05T16:19:45.496Z,5.00
2023-03-05T16:21:50.598Z,2.42
2023-03-05T16:23:55.481Z,3.03
2023-03-05T16:26:00.596Z,1.73
2023-03-05T16:28:05.514Z,2.83
2023-03-05T16:30:12.212Z,3.00
2023-03-05T16:32:20.107Z,3.55
2023-03-05T16:34:24.815Z,1.70
2023-03-05T16:36:31.595Z,2.85
2023-03-05T16:38:36.628Z,3.30
2023-03-05T16:41:06.974Z,3.53
2023-03-05T16:43:07.168Z,4.53
2023-03-05T16:45:14.301Z,5.18
2023-03-05T16:47:21.628Z,3.80
2023-03-05T16:49:26.547Z,2.17
2023-03-05T16:51:33.085Z,1.95
2023-03-05T16:53:37.996Z,1.73
2023-03-05T16:55:44.988Z,1.55
2023-03-05T16:57:49.738Z,1.85
2023-03-05T16:59:54.900Z,2.03
2023-03-05T17:01:59.673Z,1.63
2023-03-05T17:04:07.581Z,2.53
2023-03-05T17:06:15.333Z,3.70
2023-03-05T17:08:20.019Z,2.22
2023-03-05T17:10:26.456Z,2.97
2023-03-05T17:12:31.143Z,2.63
2023-03-05T17:14:39.151Z,4.35
2023-03-05T17:16:44.622Z,2.92
2023-03-05T17:18:49.719Z,4.90
2023-03-05T17:20:57.140Z,1.70
2023-03-05T17:23:02.355Z,3.85
2023-03-05T17:25:08.292Z,1.88
2023-03-05T17:27:18.856Z,2.78
2023-03-05T17:29:23.692Z,3.45
2023-03-05T17:31:28.855Z,2.70
2023-03-05T17:33:34.637Z,1.73
2023-03-05T17:35:40.048Z,1.63
2023-03-05T17:37:47.500Z,2.60
2023-03-05T17:39:52.544Z,3.58
2023-03-05T17:41:57.575Z,3.28
2023-03-05T17:44:02.386Z,2.70
2023-03-05T17:46:07.459Z,3.70
2023-03-05T17:48:14.407Z,3.30
2023-03-05T17:50:19.866Z,3.83
2023-03-05T17:52:24.688Z,2.60
2023-03-05T17:54:32.380Z,2.15
2023-03-05T17:56:37.190Z,2.78
2023-03-05T17:58:46.886Z,5.35
2023-03-05T18:00:54.484Z,3.20
2023-03-05T18:03:01.116Z,2.50
2023-03-05T18:05:07.683Z,5.38
2023-03-05T18:07:12.597Z,3.15
2023-03-05T18:09:20.161Z,1.55
2023-03-05T18:11:29.201Z,3.72
2023-03-05T18:13:33.982Z,4.88
2023-03-05T18:15:41.848Z,5.00
2023-03-05T18:17:47.288Z,5.70
2023-03-05T18:19:52.227Z,6.47
2023-03-05T18:21:57.003Z,4.78
2023-03-05T18:24:01.781Z,5.53
2023-03-05T18:26:06.607Z,7.22
2023-03-05T18:28:16.555Z,4.40
2023-03-05T18:30:21.639Z,4.32
2023-03-05T18:32:29.331Z,2.42
2023-03-05T18:34:34.044Z,5.00
2023-03-05T18:36:40.041Z,3.30
2023-03-05T18:38:45.129Z,4.95
2023-03-05T18:40:54.321Z,5.55
2023-03-05T18:43:01.402Z,8.55
2023-03-05T18:45:10.433Z,7.40
2023-03-05T18:47:15.293Z,4.68
2023-03-05T18:49:20.108Z,6.72
2023-03-05T18:51:25.077Z,5.88
2023-03-05T18:53:30.043Z,6.50
2023-03-05T18:55:36.113Z,4.18
2023-03-05T18:57:41.871Z,7.03
2023-03-05T18:59:46.992Z,5.15
2023-03-05T19:01:54.375Z,3.45
2023-03-05T19:04:01.857Z,6.45
2023-03-05T19:06:08.620Z,6.45
2023-03-05T19:08:14.164Z,5.30
2023-03-05T19:10:20.244Z,6.22
2023-03-05T19:12:31.071Z,6.70
2023-03-05T19:14:35.919Z,7.15
2023-03-05T19:16:44.172Z,4.45
2023-03-05T19:19:24.620Z,7.00
2023-03-05T19:21:29.701Z,8.23
2023-03-05T19:23:35.010Z,5.68
2023-03-05T19:25:45.366Z,7.53
2023-03-05T19:27:50.184Z,5.43
2023-03-05T19:29:55.349Z,6.50
2023-03-05T19:32:03.079Z,3.20
2023-03-05T19:34:08.489Z,3.05
2023-03-05T19:36:16.859Z,5.32
2023-03-05T19:38:21.607Z,7.53
2023-03-05T19:40:26.665Z,5.68
2023-03-05T19:42:31.560Z,6.28
2023-03-05T19:44:36.904Z,5.20
2023-03-05T19:46:42.005Z,9.55
2023-03-05T19:48:47.223Z,6.65
2023-03-05T19:50:52.339Z,9.48
2023-03-05T19:53:01.843Z,8.40
2023-03-05T19:55:07.703Z,6.90
2023-03-05T19:57:12.704Z,9.75
2023-03-05T19:59:18.867Z,6.88
2023-03-05T20:01:26.130Z,8.85
2023-03-05T20:03:31.258Z,6.53
2023-03-05T20:05:36.150Z,9.48
2023-03-05T20:07:41.902Z,12.50
2023-03-05T20:09:51.057Z,10.23
2023-03-05T20:11:57.897Z,10.48
2023-03-05T20:14:02.965Z,10.88
2023-03-05T20:16:08.859Z,10.95
2023-03-05T20:18:13.906Z,11.15
2023-03-05T20:20:20.224Z,9.85
2023-03-05T20:22:24.946Z,10.95
2023-03-05T20:24:29.869Z,7.45
2023-03-05T20:26:39.514Z,7.45
2023-03-05T20:28:44.717Z,5.28
2023-03-05T20:30:55.754Z,10.90
2023-03-05T20:33:00.926Z,7.80
2023-03-05T20:35:05.818Z,11.15
2023-03-05T20:37:10.525Z,8.88
2023-03-05T20:39:15.552Z,7.75
2023-03-05T20:41:21.838Z,7.60
2023-03-05T20:43:32.596Z,7.80
2023-03-05T20:45:37.674Z,6.60
2023-03-05T20:47:46.272Z,6.70
2023-03-05T20:49:51.065Z,7.15
2023-03-05T20:51:55.932Z,9.25
2023-03-05T20:54:05.021Z,6.43
2023-03-05T20:56:10.475Z,9.98
2023-03-05T20:58:16.112Z,9.65
2023-03-05T21:00:24.236Z,13.90
2023-03-05T21:02:29.811Z,11.95
2023-03-05T21:04:34.893Z,11.20
2023-03-05T21:06:40.819Z,12.90
2023-03-05T21:08:46.564Z,16.02
2023-03-05T21:10:51.615Z,11.65
2023-03-05T21:13:00.330Z,13.07
2023-03-05T21:15:06.153Z,15.45
2023-03-05T21:17:13.523Z,20.50
2023-03-05T21:19:18.488Z,17.50
2023-03-05T21:21:23.466Z,14.55
2023-03-05T21:23:28.243Z,16.98
2023-03-05T21:25:34.496Z,11.95
2023-03-05T21:27:42.521Z,14.73
2023-03-05T21:29:47.355Z,12.55
2023-03-05T21:31:52.113Z,11.63
2023-03-05T21:33:59.556Z,10.60
2023-03-05T21:36:04.751Z,10.68
2023-03-05T21:38:11.680Z,10.73
2023-03-05T21:40:19.252Z,10.55
2023-03-05T21:42:24.095Z,8.55
2023-03-05T21:44:28.888Z,8.00
2023-03-05T21:46:35.202Z,8.32
2023-03-05T21:48:40.259Z,9.63
2023-03-05T21:50:49.495Z,8.77
2023-03-05T21:52:55.482Z,10.32
2023-03-05T21:55:01.083Z,12.60
2023-03-05T21:57:05.936Z,10.70
2023-03-05T21:59:10.822Z,10.23
2023-03-05T22:01:16.496Z,10.57
2023-03-05T22:03:21.306Z,9.40
2023-03-05T22:05:26.423Z,9.35
2023-03-05T22:07:33.847Z,12.40
2023-03-05T22:09:38.580Z,10.88
2023-03-05T22:11:45.039Z,12.63
2023-03-05T22:13:50.026Z,10.20
2023-03-05T22:15:57.083Z,10.77
2023-03-05T22:18:01.977Z,12.95
2023-03-05T22:20:08.441Z,11.23
2023-03-05T22:22:13.237Z,9.07
2023-03-05T22:24:21.912Z,11.48
2023-03-05T22:26:27.712Z,11.88
2023-03-05T22:28:33.245Z,13.80
2023-03-05T22:30:38.231Z,10.05
2023-03-05T22:32:43.112Z,11.50
2023-03-05T22:34:47.994Z,11.57
2023-03-05T22:36:52.787Z,11.98
2023-03-05T22:38:57.880Z,13.88
2023-03-05T22:41:09.722Z,10.98
2023-03-05T22:43:18.362Z,13.98
2023-03-05T22:45:23.428Z,12.35
2023-03-05T22:47:28.892Z,9.32
2023-03-05T22:49:33.691Z,12.40
2023-03-05T22:51:38.490Z,8.85
2023-03-05T22:53:43.574Z,8.80
2023-03-05T22:55:48.573Z,7.38
2023-03-05T22:57:55.986Z,6.50
2023-03-05T23:00:01.164Z,3.22
2023-03-05T23:02:06.184Z,3.70
2023-03-05T23:04:57.821Z,5.00
2023-03-05T23:07:02.696Z,7.35
2023-03-05T23:09:07.572Z,5.90
2023-03-05T23:11:15.661Z,3.10
2023-03-05T23:13:23.379Z,5.72
2023-03-05T23:15:30.004Z,6.72
2023-03-05T23:17:35.233Z,6.50
2023-03-05T23:19:40.181Z,8.95
2023-03-05T23:21:45.050Z,7.75
2023-03-05T23:23:49.959Z,6.97
2023-03-05T23:25:55.346Z,7.50
2023-03-05T23:28:00.875Z,10.82
2023-03-05T23:30:26.811Z,7.38
2023-03-05T23:32:32.305Z,6.30
2023-03-05T23:34:37.110Z,7.47
2023-03-05T23:36:42.445Z,8.00
2023-03-05T23:38:47.278Z,6.75
2023-03-05T23:40:54.338Z,7.32
2023-03-05T23:42:59.329Z,7.25
2023-03-05T23:45:04.128Z,7.30
2023-03-05T23:47:11.662Z,6.95
2023-03-05T23:49:16.434Z,6.57
2023-03-05T23:51:21.358Z,7.55
2023-03-05T23:53:28.643Z,8.82
2023-03-05T23:55:39.307Z,8.88
2023-03-05T23:57:44.593Z,6.05
2023-03-05T23:59:49.470Z,5.65
